sensor_id;sensor_type;location;lat;lon;timestamp;pressure;altitude;pressure_sealevel;temperature;humidity
84136;BME280;74238;50.566;7.262;2023-12-04T00:01:54;101009.66;;;0.37;68.03
84136;BME280;74238;50.566;7.262;2023-12-04T00:04:19;101006.13;;;0.35;67.79
84136;BME280;74238;50.566;7.262;2023-12-04T00:06:45;100992.84;;;0.26;68.10
84136;BME280;74238;50.566;7.262;2023-12-04T00:09:10;101005.22;;;0.33;67.96
84136;BME280;74238;50.566;7.262;2023-12-04T00:11:36;100981.53;;;0.24;67.97
84136;BME280;74238;50.566;7.262;2023-12-04T00:14:01;100997.31;;;0.30;67.68
84136;BME280;74238;50.566;7.262;2023-12-04T00:16:26;100996.44;;;0.29;67.92
84136;BME280;74238;50.566;7.262;2023-12-04T00:18:52;100986.88;;;0.28;68.14
84136;BME280;74238;50.566;7.262;2023-12-04T00:21:17;100975.41;;;0.21;68.05
84136;BME280;74238;50.566;7.262;2023-12-04T00:23:42;100919.97;;;-0.06;68.33
84136;BME280;74238;50.566;7.262;2023-12-04T00:26:08;100936.66;;;0.01;67.65
84136;BME280;74238;50.566;7.262;2023-12-04T00:28:36;100965.84;;;0.20;67.88
84136;BME280;74238;50.566;7.262;2023-12-04T00:31:01;100969.19;;;0.16;67.85
84136;BME280;74238;50.566;7.262;2023-12-04T00:33:26;100946.25;;;0.03;68.08
84136;BME280;74238;50.566;7.262;2023-12-04T00:35:52;100968.28;;;0.16;68.45
84136;BME280;74238;50.566;7.262;2023-12-04T00:38:17;100950.66;;;0.06;68.93
84136;BME280;74238;50.566;7.262;2023-12-04T00:40:42;100972.56;;;0.14;69.08
84136;BME280;74238;50.566;7.262;2023-12-04T00:43:08;100905.50;;;-0.25;68.74
84136;BME280;74238;50.566;7.262;2023-12-04T00:45:33;100966.44;;;0.12;69.23
84136;BME280;74238;50.566;7.262;2023-12-04T00:47:59;100970.78;;;0.13;69.19
84136;BME280;74238;50.566;7.262;2023-12-04T00:50:24;100969.06;;;0.13;69.38
84136;BME280;74238;50.566;7.262;2023-12-04T00:52:49;100976.03;;;0.14;68.73
84136;BME280;74238;50.566;7.262;2023-12-04T00:55:15;100910.75;;;-0.24;68.51
84136;BME280;74238;50.566;7.262;2023-12-04T00:57:40;100981.28;;;0.16;68.82
84136;BME280;74238;50.566;7.262;2023-12-04T01:00:06;100931.09;;;-0.10;68.67
84136;BME280;74238;50.566;7.262;2023-12-04T01:02:31;100964.81;;;0.15;69.09
84136;BME280;74238;50.566;7.262;2023-12-04T01:04:57;100956.16;;;0.15;69.27
84136;BME280;74238;50.566;7.262;2023-12-04T01:07:22;100954.41;;;0.14;68.72
84136;BME280;74238;50.566;7.262;2023-12-04T01:09:47;100945.66;;;0.12;68.99
84136;BME280;74238;50.566;7.262;2023-12-04T01:12:13;100949.03;;;0.09;68.80
84136;BME280;74238;50.566;7.262;2023-12-04T01:14:38;100936.59;;;-0.01;68.88
84136;BME280;74238;50.566;7.262;2023-12-04T01:17:04;100929.56;;;-0.04;69.01
84136;BME280;74238;50.566;7.262;2023-12-04T01:19:29;100945.50;;;0.07;69.02
84136;BME280;74238;50.566;7.262;2023-12-04T01:21:54;100943.75;;;0.06;69.35
84136;BME280;74238;50.566;7.262;2023-12-04T01:24:20;100941.97;;;0.05;69.65
84136;BME280;74238;50.566;7.262;2023-12-04T01:26:45;100938.50;;;0.05;69.37
84136;BME280;74238;50.566;7.262;2023-12-04T01:29:10;100939.38;;;0.05;69.42
84136;BME280;74238;50.566;7.262;2023-12-04T01:31:36;100930.56;;;0.00;69.23
84136;BME280;74238;50.566;7.262;2023-12-04T01:34:01;100941.09;;;0.05;68.85
84136;BME280;74238;50.566;7.262;2023-12-04T01:36:26;100939.34;;;0.04;68.95
84136;BME280;74238;50.566;7.262;2023-12-04T01:38:52;100941.94;;;0.04;69.29
84136;BME280;74238;50.566;7.262;2023-12-04T01:41:17;100939.28;;;0.02;68.64
84136;BME280;74238;50.566;7.262;2023-12-04T01:43:42;100934.94;;;0.01;69.25
84136;BME280;74238;50.566;7.262;2023-12-04T01:46:08;100918.22;;;-0.07;69.10
84136;BME280;74238;50.566;7.262;2023-12-04T01:48:36;100930.56;;;0.00;69.18
84136;BME280;74238;50.566;7.262;2023-12-04T01:51:06;100922.53;;;-0.08;68.75
84136;BME280;74238;50.566;7.262;2023-12-04T01:53:33;100889.66;;;-0.33;68.95
84136;BME280;74238;50.566;7.262;2023-12-04T01:55:59;100931.19;;;-0.07;68.58
84136;BME280;74238;50.566;7.262;2023-12-04T01:58:25;100898.72;;;-0.21;68.40
84136;BME280;74238;50.566;7.262;2023-12-04T02:00:50;100915.47;;;-0.12;68.44
84136;BME280;74238;50.566;7.262;2023-12-04T02:03:16;100882.81;;;-0.31;68.02
84136;BME280;74238;50.566;7.262;2023-12-04T02:05:44;100882.88;;;-0.29;68.75
84136;BME280;74238;50.566;7.262;2023-12-04T02:08:09;100911.00;;;-0.16;68.56
84136;BME280;74238;50.566;7.262;2023-12-04T02:10:36;100905.75;;;-0.17;68.71
84136;BME280;74238;50.566;7.262;2023-12-04T02:13:02;100907.47;;;-0.18;68.37
84136;BME280;74238;50.566;7.262;2023-12-04T02:15:27;100902.91;;;-0.25;68.55
84136;BME280;74238;50.566;7.262;2023-12-04T02:17:53;100908.19;;;-0.22;68.42
84136;BME280;74238;50.566;7.262;2023-12-04T02:20:18;100868.69;;;-0.40;68.80
84136;BME280;74238;50.566;7.262;2023-12-04T02:22:43;100879.19;;;-0.36;68.69
84136;BME280;74238;50.566;7.262;2023-12-04T02:25:10;100854.56;;;-0.49;68.88
84136;BME280;74238;50.566;7.262;2023-12-04T02:27:56;100890.78;;;-0.26;68.30
84136;BME280;74238;50.566;7.262;2023-12-04T02:30:24;100895.09;;;-0.27;68.30
84136;BME280;74238;50.566;7.262;2023-12-04T02:32:50;100883.75;;;-0.29;68.70
84136;BME280;74238;50.566;7.262;2023-12-04T02:35:21;100868.00;;;-0.35;68.90
84136;BME280;74238;50.566;7.262;2023-12-04T02:37:47;100874.16;;;-0.31;69.40
84136;BME280;74238;50.566;7.262;2023-12-04T02:40:14;100867.16;;;-0.34;69.19
84136;BME280;74238;50.566;7.262;2023-12-04T02:42:39;100828.47;;;-0.53;69.34
84136;BME280;74238;50.566;7.262;2023-12-04T02:45:05;100855.81;;;-0.37;nan
84136;BME280;74238;50.566;7.262;2023-12-04T02:47:31;100849.50;;;-0.44;69.21
84136;BME280;74238;50.566;7.262;2023-12-04T02:49:56;100849.69;;;-0.39;69.32
84136;BME280;74238;50.566;7.262;2023-12-04T02:52:21;100855.75;;;-0.39;69.31
84136;BME280;74238;50.566;7.262;2023-12-04T02:54:47;100843.66;;;-0.38;69.56
84136;BME280;74238;50.566;7.262;2023-12-04T02:57:12;100839.13;;;-0.44;69.38
84136;BME280;74238;50.566;7.262;2023-12-04T02:59:37;100841.91;;;-0.39;69.49
84136;BME280;74238;50.566;7.262;2023-12-04T03:02:03;100798.81;;;-0.61;69.41
84136;BME280;74238;50.566;7.262;2023-12-04T03:04:30;100836.66;;;-0.41;69.65
84136;BME280;74238;50.566;7.262;2023-12-04T03:06:55;100811.16;;;-0.54;69.58
84136;BME280;74238;50.566;7.262;2023-12-04T03:09:21;100830.56;;;-0.43;nan
84136;BME280;74238;50.566;7.262;2023-12-04T03:11:46;100817.25;;;-0.52;69.76
84136;BME280;74238;50.566;7.262;2023-12-04T03:14:11;100820.13;;;-0.45;69.56
84136;BME280;74238;50.566;7.262;2023-12-04T03:16:37;100820.97;;;-0.44;69.75
84136;BME280;74238;50.566;7.262;2023-12-04T03:19:02;100821.75;;;-0.47;70.08
84136;BME280;74238;50.566;7.262;2023-12-04T03:21:27;100794.41;;;-0.64;70.13
84136;BME280;74238;50.566;7.262;2023-12-04T03:23:54;100793.72;;;-0.58;70.13
84136;BME280;74238;50.566;7.262;2023-12-04T03:26:19;100799.00;;;-0.55;70.28
84136;BME280;74238;50.566;7.262;2023-12-04T03:28:44;100799.09;;;-0.52;70.26
84136;BME280;74238;50.566;7.262;2023-12-04T03:31:10;100770.97;;;-0.67;70.06
84136;BME280;74238;50.566;7.262;2023-12-04T03:33:35;100788.44;;;-0.61;70.15
84136;BME280;74238;50.566;7.262;2023-12-04T03:36:00;100795.59;;;-0.54;70.03
84136;BME280;74238;50.566;7.262;2023-12-04T03:38:26;100788.63;;;-0.55;70.08
84136;BME280;74238;50.566;7.262;2023-12-04T03:40:51;100795.59;;;-0.54;69.96
84136;BME280;74238;50.566;7.262;2023-12-04T03:43:17;100763.09;;;-0.70;69.83
84136;BME280;74238;50.566;7.262;2023-12-04T03:45:42;100786.78;;;-0.59;69.98
84136;BME280;74238;50.566;7.262;2023-12-04T03:48:08;100781.59;;;-0.59;69.88
84136;BME280;74238;50.566;7.262;2023-12-04T03:50:33;100777.38;;;-0.56;70.23
84136;BME280;74238;50.566;7.262;2023-12-04T03:52:58;100773.06;;;-0.55;70.02
84136;BME280;74238;50.566;7.262;2023-12-04T03:55:24;100776.50;;;-0.56;70.10
84136;BME280;74238;50.566;7.262;2023-12-04T03:57:49;100783.44;;;-0.55;69.96
84136;BME280;74238;50.566;7.262;2023-12-04T04:00:15;100763.22;;;-0.65;70.27
84136;BME280;74238;50.566;7.262;2023-12-04T04:02:42;100741.06;;;-0.83;70.05
84136;BME280;74238;50.566;7.262;2023-12-04T04:05:08;100730.59;;;-0.86;70.60
84136;BME280;74238;50.566;7.262;2023-12-04T04:07:33;100774.69;;;-0.59;70.27
84136;BME280;74238;50.566;7.262;2023-12-04T04:09:58;100770.09;;;-0.68;70.52
84136;BME280;74238;50.566;7.262;2023-12-04T04:12:24;100776.41;;;-0.59;70.28
84136;BME280;74238;50.566;7.262;2023-12-04T04:14:49;100776.41;;;-0.59;70.56
84136;BME280;74238;50.566;7.262;2023-12-04T04:17:14;100774.63;;;-0.60;70.91
84136;BME280;74238;50.566;7.262;2023-12-04T04:19:40;100769.41;;;-0.62;71.16
84136;BME280;74238;50.566;7.262;2023-12-04T04:22:06;100768.47;;;-0.64;71.64
84136;BME280;74238;50.566;7.262;2023-12-04T04:24:31;100768.41;;;-0.65;71.87
84136;BME280;74238;50.566;7.262;2023-12-04T04:26:57;100769.25;;;-0.67;71.47
84136;BME280;74238;50.566;7.262;2023-12-04T04:29:22;100772.69;;;-0.68;71.66
84136;BME280;74238;50.566;7.262;2023-12-04T04:31:47;100762.31;;;-0.68;71.64
84136;BME280;74238;50.566;7.262;2023-12-04T04:34:12;100768.31;;;-0.69;71.57
84136;BME280;74238;50.566;7.262;2023-12-04T04:36:38;100749.97;;;-0.75;71.56
84136;BME280;74238;50.566;7.262;2023-12-04T04:39:03;100757.94;;;-0.69;71.43
84136;BME280;74238;50.566;7.262;2023-12-04T04:41:29;100744.78;;;-0.75;71.69
84136;BME280;74238;50.566;7.262;2023-12-04T04:43:55;100736.06;;;-0.77;71.41
84136;BME280;74238;50.566;7.262;2023-12-04T04:46:20;100747.56;;;-0.69;71.33
84136;BME280;74238;50.566;7.262;2023-12-04T04:48:45;100755.34;;;-0.69;71.67
84136;BME280;74238;50.566;7.262;2023-12-04T04:51:11;100749.22;;;-0.71;71.69
84136;BME280;74238;50.566;7.262;2023-12-04T04:53:36;100745.75;;;-0.71;71.70
84136;BME280;74238;50.566;7.262;2023-12-04T04:56:01;100733.47;;;-0.77;71.61
84136;BME280;74238;50.566;7.262;2023-12-04T04:58:27;100737.09;;;-0.72;72.18
84136;BME280;74238;50.566;7.262;2023-12-04T05:00:52;100739.66;;;-0.73;71.80
84136;BME280;74238;50.566;7.262;2023-12-04T05:03:17;100732.75;;;-0.73;71.42
84136;BME280;74238;50.566;7.262;2023-12-04T05:05:43;100720.59;;;-0.74;71.50
84136;BME280;74238;50.566;7.262;2023-12-04T05:08:08;100723.94;;;-0.78;71.91
84136;BME280;74238;50.566;7.262;2023-12-04T05:10:33;100731.88;;;-0.73;71.68
84136;BME280;74238;50.566;7.262;2023-12-04T05:12:58;100726.63;;;-0.75;71.52
84136;BME280;74238;50.566;7.262;2023-12-04T05:15:24;100730.09;;;-0.74;71.36
84136;BME280;74238;50.566;7.262;2023-12-04T05:17:51;100730.97;;;-0.74;71.70
84136;BME280;74238;50.566;7.262;2023-12-04T05:20:16;100725.75;;;-0.75;71.79
84136;BME280;74238;50.566;7.262;2023-12-04T05:22:42;100682.53;;;-1.02;71.53
84136;BME280;74238;50.566;7.262;2023-12-04T05:25:07;100726.56;;;-0.76;71.64
84136;BME280;74238;50.566;7.262;2023-12-04T05:27:33;100730.06;;;-0.76;71.72
84136;BME280;74238;50.566;7.262;2023-12-04T05:29:58;100703.81;;;-0.85;72.07
84136;BME280;74238;50.566;7.262;2023-12-04T05:32:23;100715.22;;;-0.80;71.91
84136;BME280;74238;50.566;7.262;2023-12-04T05:34:49;100715.22;;;-0.80;71.75
84136;BME280;74238;50.566;7.262;2023-12-04T05:37:14;100717.13;;;-0.76;71.62
84136;BME280;74238;50.566;7.262;2023-12-04T05:39:39;100715.44;;;-0.74;71.66
84136;BME280;74238;50.566;7.262;2023-12-04T05:42:05;100710.25;;;-0.74;71.97
84136;BME280;74238;50.566;7.262;2023-12-04T05:44:30;100704.25;;;-0.73;71.83
84136;BME280;74238;50.566;7.262;2023-12-04T05:46:56;100701.69;;;-0.71;71.50
84136;BME280;74238;50.566;7.262;2023-12-04T05:49:21;100699.09;;;-0.71;71.85
84136;BME280;74238;50.566;7.262;2023-12-04T05:51:46;100694.78;;;-0.71;72.11
84136;BME280;74238;50.566;7.262;2023-12-04T05:54:12;100682.72;;;-0.70;71.42
84136;BME280;74238;50.566;7.262;2023-12-04T05:56:37;100681.00;;;-0.70;71.86
84136;BME280;74238;50.566;7.262;2023-12-04T05:59:02;100684.53;;;-0.68;71.77
84136;BME280;74238;50.566;7.262;2023-12-04T06:01:28;100677.66;;;-0.65;71.59
84136;BME280;74238;50.566;7.262;2023-12-04T06:03:53;100669.09;;;-0.64;71.60
84136;BME280;74238;50.566;7.262;2023-12-04T06:06:19;100618.22;;;-0.88;71.44
84136;BME280;74238;50.566;7.262;2023-12-04T06:08:44;100664.00;;;-0.60;71.11
84136;BME280;74238;50.566;7.262;2023-12-04T06:11:09;100657.06;;;-0.62;70.84
84136;BME280;74238;50.566;7.262;2023-12-04T06:13:35;100668.47;;;-0.56;70.79
84136;BME280;74238;50.566;7.262;2023-12-04T06:16:00;100663.34;;;-0.54;70.65
84136;BME280;74238;50.566;7.262;2023-12-04T06:18:25;100646.69;;;-0.62;70.42
84136;BME280;74238;50.566;7.262;2023-12-04T06:20:50;100659.94;;;-0.52;70.31
84136;BME280;74238;50.566;7.262;2023-12-04T06:23:16;100620.53;;;-0.69;70.59
84136;BME280;74238;50.566;7.262;2023-12-04T06:25:43;100642.72;;;-0.50;70.52
84136;BME280;74238;50.566;7.262;2023-12-04T06:28:09;100640.19;;;-0.48;70.42
84136;BME280;74238;50.566;7.262;2023-12-04T06:30:34;100629.81;;;-0.48;70.50
84136;BME280;74238;50.566;7.262;2023-12-04T06:33:00;100629.84;;;-0.47;70.45
84136;BME280;74238;50.566;7.262;2023-12-04T06:35:25;100622.06;;;-0.47;70.15
84136;BME280;74238;50.566;7.262;2023-12-04T06:37:53;100613.50;;;-0.44;70.38
84136;BME280;74238;50.566;7.262;2023-12-04T06:40:19;100602.22;;;-0.46;69.93
84136;BME280;74238;50.566;7.262;2023-12-04T06:42:45;100581.16;;;-0.57;69.80
84136;BME280;74238;50.566;7.262;2023-12-04T06:45:10;100595.28;;;-0.47;70.22
84136;BME280;74238;50.566;7.262;2023-12-04T06:47:36;100585.59;;;-0.53;69.98
84136;BME280;74238;50.566;7.262;2023-12-04T06:50:04;100614.44;;;-0.42;69.16
84136;BME280;74238;50.566;7.262;2023-12-04T06:52:29;100606.72;;;-0.40;70.04
84136;BME280;74238;50.566;7.262;2023-12-04T06:54:55;100611.91;;;-0.40;69.62
84136;BME280;74238;50.566;7.262;2023-12-04T06:57:20;100608.47;;;-0.39;69.93
84136;BME280;74238;50.566;7.262;2023-12-04T06:59:46;100603.28;;;-0.39;68.95
84136;BME280;74238;50.566;7.262;2023-12-04T07:02:11;100577.66;;;-0.57;69.70
84136;BME280;74238;50.566;7.262;2023-12-04T07:04:36;100591.66;;;-0.52;69.61
84136;BME280;74238;50.566;7.262;2023-12-04T07:07:02;100607.44;;;-0.45;69.64
84136;BME280;74238;50.566;7.262;2023-12-04T07:09:33;100613.59;;;-0.41;69.01
84136;BME280;74238;50.566;7.262;2023-12-04T07:11:59;100617.97;;;-0.40;69.23
84136;BME280;74238;50.566;7.262;2023-12-04T07:14:25;100601.25;;;-0.50;69.38
84136;BME280;74238;50.566;7.262;2023-12-04T07:16:50;100609.25;;;-0.42;69.52
84136;BME280;74238;50.566;7.262;2023-12-04T07:19:15;100596.28;;;-0.42;69.67
84136;BME280;74238;50.566;7.262;2023-12-04T07:21:41;100593.69;;;-0.42;69.50
84136;BME280;74238;50.566;7.262;2023-12-04T07:24:07;100586.75;;;-0.43;69.17
84136;BME280;74238;50.566;7.262;2023-12-04T07:26:34;100594.53;;;-0.43;69.57
84136;BME280;74238;50.566;7.262;2023-12-04T07:28:59;100589.34;;;-0.43;69.17
84136;BME280;74238;50.566;7.262;2023-12-04T07:31:25;100570.19;;;-0.48;68.97
84136;BME280;74238;50.566;7.262;2023-12-04T07:33:53;100587.56;;;-0.44;68.87
84136;BME280;74238;50.566;7.262;2023-12-04T07:36:18;100577.19;;;-0.46;68.52
84136;BME280;74238;50.566;7.262;2023-12-04T07:38:43;100578.06;;;-0.43;69.29
84136;BME280;74238;50.566;7.262;2023-12-04T07:41:08;100569.41;;;-0.44;69.44
84136;BME280;74238;50.566;7.262;2023-12-04T07:43:34;100567.75;;;-0.42;68.96
84136;BME280;74238;50.566;7.262;2023-12-04T07:45:59;100502.69;;;-0.80;69.03
84136;BME280;74238;50.566;7.262;2023-12-04T07:48:25;100563.59;;;-0.37;69.02
84136;BME280;74238;50.566;7.262;2023-12-04T07:50:50;100567.94;;;-0.36;68.21
84136;BME280;74238;50.566;7.262;2023-12-04T07:53:16;100537.28;;;-0.49;67.65
84136;BME280;74238;50.566;7.262;2023-12-04T07:55:41;100558.53;;;-0.32;68.20
84136;BME280;74238;50.566;7.262;2023-12-04T07:58:07;100542.78;;;-0.38;67.92
84136;BME280;74238;50.566;7.262;2023-12-04T08:00:32;100559.56;;;-0.27;68.50
84136;BME280;74238;50.566;7.262;2023-12-04T08:02:58;100558.72;;;-0.25;68.45
84136;BME280;74238;50.566;7.262;2023-12-04T08:05:23;100556.16;;;-0.25;68.07
84136;BME280;74238;50.566;7.262;2023-12-04T08:07:48;100549.28;;;-0.23;68.19
84136;BME280;74238;50.566;7.262;2023-12-04T08:10:13;100546.75;;;-0.21;68.33
84136;BME280;74238;50.566;7.262;2023-12-04T08:12:39;100551.16;;;-0.18;68.11
84136;BME280;74238;50.566;7.262;2023-12-04T08:15:05;100537.25;;;-0.20;66.99
84136;BME280;74238;50.566;7.262;2023-12-04T08:17:30;100544.25;;;-0.18;66.86
84136;BME280;74238;50.566;7.262;2023-12-04T08:19:56;100515.47;;;-0.26;67.57
84136;BME280;74238;50.566;7.262;2023-12-04T08:22:21;100530.47;;;-0.15;67.75
84136;BME280;74238;50.566;7.262;2023-12-04T08:24:46;100530.56;;;-0.12;67.39
84136;BME280;74238;50.566;7.262;2023-12-04T08:27:12;100518.50;;;-0.10;67.65
84136;BME280;74238;50.566;7.262;2023-12-04T08:29:39;100521.13;;;-0.09;67.55
84136;BME280;74238;50.566;7.262;2023-12-04T08:32:05;100510.75;;;-0.09;67.41
84136;BME280;74238;50.566;7.262;2023-12-04T08:34:30;100520.34;;;-0.06;67.22
84136;BME280;74238;50.566;7.262;2023-12-04T08:36:56;100520.41;;;-0.03;67.57
84136;BME280;74238;50.566;7.262;2023-12-04T08:39:22;100502.94;;;-0.10;67.11
84136;BME280;74238;50.566;7.262;2023-12-04T08:41:47;100523.13;;;0.00;66.24
84136;BME280;74238;50.566;7.262;2023-12-04T08:44:13;100516.22;;;0.02;66.96
84136;BME280;74238;50.566;7.262;2023-12-04T08:46:38;100520.63;;;0.05;67.25
84136;BME280;74238;50.566;7.262;2023-12-04T08:49:05;100474.84;;;-0.27;67.06
84136;BME280;74238;50.566;7.262;2023-12-04T08:51:30;100517.09;;;0.03;66.97
84136;BME280;74238;50.566;7.262;2023-12-04T08:53:56;100527.69;;;0.10;66.77
84136;BME280;74238;50.566;7.262;2023-12-04T08:56:21;100524.06;;;0.04;66.07
84136;BME280;74238;50.566;7.262;2023-12-04T08:58:46;100527.75;;;0.13;66.31
84136;BME280;74238;50.566;7.262;2023-12-04T09:01:12;100523.47;;;0.14;66.02
84136;BME280;74238;50.566;7.262;2023-12-04T09:03:37;100518.31;;;0.15;65.72
84136;BME280;74238;50.566;7.262;2023-12-04T09:06:02;100490.28;;;0.02;66.38
84136;BME280;74238;50.566;7.262;2023-12-04T09:08:28;100513.16;;;0.17;66.97
84136;BME280;74238;50.566;7.262;2023-12-04T09:10:53;100513.97;;;0.14;66.08
84136;BME280;74238;50.566;7.262;2023-12-04T09:13:19;100520.16;;;0.19;66.19
84136;BME280;74238;50.566;7.262;2023-12-04T09:15:44;100509.78;;;0.19;65.94
84136;BME280;74238;50.566;7.262;2023-12-04T09:18:09;100487.94;;;0.11;65.32
84136;BME280;74238;50.566;7.262;2023-12-04T09:20:35;100502.00;;;0.21;65.14
84136;BME280;74238;50.566;7.262;2023-12-04T09:23:01;100500.28;;;0.21;65.73
84136;BME280;74238;50.566;7.262;2023-12-04T09:25:26;100480.31;;;0.19;65.77
84136;BME280;74238;50.566;7.262;2023-12-04T09:27:51;100497.81;;;0.26;65.47
84136;BME280;74238;50.566;7.262;2023-12-04T09:30:17;100469.84;;;0.14;65.28
84136;BME280;74238;50.566;7.262;2023-12-04T09:32:43;100469.03;;;0.17;65.16
84136;BME280;74238;50.566;7.262;2023-12-04T09:35:09;100499.69;;;0.32;64.89
84136;BME280;74238;50.566;7.262;2023-12-04T09:37:34;100465.66;;;0.19;65.67
84136;BME280;74238;50.566;7.262;2023-12-04T09:40:00;100497.22;;;0.38;65.69
84136;BME280;74238;50.566;7.262;2023-12-04T09:42:26;100413.84;;;-0.11;65.34
84136;BME280;74238;50.566;7.262;2023-12-04T09:44:52;100487.78;;;0.40;65.62
84136;BME280;74238;50.566;7.262;2023-12-04T09:47:18;100451.88;;;0.24;65.13
84136;BME280;74238;50.566;7.262;2023-12-04T09:49:48;100492.34;;;0.50;65.15
84136;BME280;74238;50.566;7.262;2023-12-04T09:52:15;100477.69;;;0.52;65.49
84136;BME280;74238;50.566;7.262;2023-12-04T09:54:41;100467.31;;;0.52;65.34
84136;BME280;74238;50.566;7.262;2023-12-04T09:57:08;100460.31;;;0.50;65.33
84136;BME280;74238;50.566;7.262;2023-12-04T09:59:33;100462.19;;;0.55;65.88
84136;BME280;74238;50.566;7.262;2023-12-04T10:02:01;100424.53;;;0.38;65.60
84136;BME280;74238;50.566;7.262;2023-12-04T10:04:26;100460.50;;;0.57;65.59
84136;BME280;74238;50.566;7.262;2023-12-04T10:06:52;100451.84;;;0.58;65.84
84136;BME280;74238;50.566;7.262;2023-12-04T10:09:18;100445.88;;;0.62;65.91
84136;BME280;74238;50.566;7.262;2023-12-04T10:11:45;100449.38;;;0.64;65.43
84136;BME280;74238;50.566;7.262;2023-12-04T10:14:20;100436.41;;;0.64;66.19
84136;BME280;74238;50.566;7.262;2023-12-04T10:16:46;100426.00;;;0.64;66.12
84136;BME280;74238;50.566;7.262;2023-12-04T10:21:42;100422.72;;;0.73;66.35
84136;BME280;74238;50.566;7.262;2023-12-04T10:24:07;100404.53;;;0.72;66.58
84136;BME280;74238;50.566;7.262;2023-12-04T10:26:33;100408.16;;;0.80;66.60
84136;BME280;74238;50.566;7.262;2023-12-04T10:29:03;100370.66;;;0.67;66.42
84136;BME280;74238;50.566;7.262;2023-12-04T10:31:37;100401.31;;;0.83;65.83
84136;BME280;74238;50.566;7.262;2023-12-04T10:34:02;100398.75;;;0.85;66.24
84136;BME280;74238;50.566;7.262;2023-12-04T10:36:29;100397.91;;;0.86;66.50
84136;BME280;74238;50.566;7.262;2023-12-04T10:38:58;100398.81;;;0.88;66.33
84136;BME280;74238;50.566;7.262;2023-12-04T10:41:24;100378.91;;;0.88;66.24
84136;BME280;74238;50.566;7.262;2023-12-04T10:43:50;100376.41;;;0.95;66.86
84136;BME280;74238;50.566;7.262;2023-12-04T10:46:15;100373.06;;;0.99;66.91
84136;BME280;74238;50.566;7.262;2023-12-04T10:48:47;100368.72;;;0.99;66.48
84136;BME280;74238;50.566;7.262;2023-12-04T10:51:12;100365.34;;;1.03;66.82
84136;BME280;74238;50.566;7.262;2023-12-04T10:53:38;100340.78;;;0.89;66.86
84136;BME280;74238;50.566;7.262;2023-12-04T10:56:09;100353.25;;;1.05;66.76
84136;BME280;74238;50.566;7.262;2023-12-04T10:58:36;100347.13;;;1.02;66.78
84136;BME280;74238;50.566;7.262;2023-12-04T11:01:06;100348.09;;;1.08;66.82
84136;BME280;74238;50.566;7.262;2023-12-04T11:03:41;100351.56;;;1.07;67.26
84136;BME280;74238;50.566;7.262;2023-12-04T11:06:10;100340.22;;;1.04;67.73
84136;BME280;74238;50.566;7.262;2023-12-04T11:08:39;100319.25;;;0.95;68.10
84136;BME280;74238;50.566;7.262;2023-12-04T11:11:12;100333.25;;;1.03;67.87
84136;BME280;74238;50.566;7.262;2023-12-04T11:13:40;100331.53;;;1.02;67.94
84136;BME280;74238;50.566;7.262;2023-12-04T11:16:28;100313.28;;;1.00;68.22
84136;BME280;74238;50.566;7.262;2023-12-04T11:18:58;100308.84;;;0.95;68.47
84136;BME280;74238;50.566;7.262;2023-12-04T11:21:26;100302.78;;;0.94;68.07
84136;BME280;74238;50.566;7.262;2023-12-04T11:23:53;100297.53;;;0.91;69.51
84136;BME280;74238;50.566;7.262;2023-12-04T11:26:20;100293.13;;;0.87;70.15
84136;BME280;74238;50.566;7.262;2023-12-04T11:28:47;100248.38;;;0.59;70.19
84136;BME280;74238;50.566;7.262;2023-12-04T11:31:13;100281.66;;;0.77;71.81
84136;BME280;74238;50.566;7.262;2023-12-04T11:33:40;100276.41;;;0.76;71.52
84136;BME280;74238;50.566;7.262;2023-12-04T11:36:12;100240.44;;;0.50;72.47
84136;BME280;74238;50.566;7.262;2023-12-04T11:38:38;100268.56;;;0.71;73.18
84136;BME280;74238;50.566;7.262;2023-12-04T11:41:24;100259.91;;;0.71;73.60
84136;BME280;74238;50.566;7.262;2023-12-04T11:43:51;100263.31;;;0.68;73.52
84136;BME280;74238;50.566;7.262;2023-12-04T11:46:24;100250.34;;;0.70;73.59
84136;BME280;74238;50.566;7.262;2023-12-04T11:48:53;100241.72;;;0.71;73.31
84136;BME280;74238;50.566;7.262;2023-12-04T11:54:10;100203.34;;;0.57;74.43
84136;BME280;74238;50.566;7.262;2023-12-04T11:56:35;100231.44;;;0.77;74.02
84136;BME280;74238;50.566;7.262;2023-12-04T11:59:05;100227.09;;;0.77;74.24
84136;BME280;74238;50.566;7.262;2023-12-04T12:01:36;100226.19;;;0.75;76.32
84136;BME280;74238;50.566;7.262;2023-12-04T12:04:05;100221.84;;;0.76;75.22
84136;BME280;74238;50.566;7.262;2023-12-04T12:06:30;100220.16;;;0.76;76.20
84136;BME280;74238;50.566;7.262;2023-12-04T12:08:56;100163.28;;;0.46;75.92
84136;BME280;74238;50.566;7.262;2023-12-04T12:11:23;100208.06;;;0.78;75.60
84136;BME280;74238;50.566;7.262;2023-12-04T12:13:48;100207.25;;;0.81;74.94
84136;BME280;74238;50.566;7.262;2023-12-04T12:16:14;100192.56;;;0.83;75.77
84136;BME280;74238;50.566;7.262;2023-12-04T12:18:40;100201.22;;;0.83;74.52
84136;BME280;74238;50.566;7.262;2023-12-04T12:21:06;100193.44;;;0.83;76.07
84136;BME280;74238;50.566;7.262;2023-12-04T12:23:32;100188.16;;;0.79;75.91
84136;BME280;74238;50.566;7.262;2023-12-04T12:25:58;100175.09;;;0.76;75.50
84136;BME280;74238;50.566;7.262;2023-12-04T12:28:23;100183.03;;;0.82;76.58
84136;BME280;74238;50.566;7.262;2023-12-04T12:30:48;100176.09;;;0.82;76.50
84136;BME280;74238;50.566;7.262;2023-12-04T12:33:15;100173.34;;;0.75;77.08
84136;BME280;74238;50.566;7.262;2023-12-04T12:35:40;100160.31;;;0.72;76.58
84136;BME280;74238;50.566;7.262;2023-12-04T12:38:06;100141.06;;;0.60;76.61
84136;BME280;74238;50.566;7.262;2023-12-04T12:40:32;100159.44;;;0.71;77.07
84136;BME280;74238;50.566;7.262;2023-12-04T12:43:05;100157.63;;;0.65;78.08
84136;BME280;74238;50.566;7.262;2023-12-04T12:45:38;100127.78;;;0.45;79.22
84136;BME280;74238;50.566;7.262;2023-12-04T12:48:04;100139.13;;;0.50;77.78
84136;BME280;74238;50.566;7.262;2023-12-04T12:50:31;100151.41;;;0.57;78.38
84136;BME280;74238;50.566;7.262;2023-12-04T12:52:56;100141.84;;;0.55;79.40
84136;BME280;74238;50.566;7.262;2023-12-04T12:55:23;100140.09;;;0.55;78.64